Time;durP1;ratioP1;P1;durP2;ratioP2;P2;SDS_P1;SDS_P2;PMS_P1;PMS_P2;Temp;Humidity;BMP_temperature;BMP_pressure;BME280_temperature;BME280_humidity;BME280_pressure;Samples;Min_cycle;Max_cycle;Signal;HPM_P1;HPM_P2
2020/12/09 00:01:11;;;;;;;84.90;35.95;;;10.00;62.20;;;;;;4926177;28;20047;-64
2020/12/09 00:03:36;;;;;;;84.57;37.88;;;10.00;62.20;;;;;;4916857;28;20046;-64
2020/12/09 00:06:02;;;;;;;83.32;36.13;;;10.00;62.20;;;;;;4916010;28;20507;-64
2020/12/09 00:08:28;;;;;;;89.60;37.25;;;10.00;62.20;;;;;;4917544;28;20054;-64
2020/12/09 00:10:53;;;;;;;88.85;38.53;;;10.00;62.30;;;;;;4914833;28;20071;-63
2020/12/09 00:13:19;;;;;;;93.38;36.92;;;9.90;62.30;;;;;;4919283;28;20062;-63
2020/12/09 00:15:45;;;;;;;87.97;36.65;;;9.90;62.30;;;;;;4910553;28;20133;-64
2020/12/09 00:18:10;;;;;;;85.00;37.53;;;9.90;62.40;;;;;;4924693;28;21157;-64
2020/12/09 00:20:36;;;;;;;88.82;38.35;;;9.90;62.40;;;;;;4913322;28;20157;-64
2020/12/09 00:23:01;;;;;;;87.15;38.63;;;9.90;62.50;;;;;;4912567;28;20066;-64
2020/12/09 00:25:27;;;;;;;85.10;35.22;;;9.90;62.50;;;;;;4910397;28;20086;-64
2020/12/09 00:27:52;;;;;;;90.18;35.55;;;9.90;62.50;;;;;;4906683;28;22140;-63
2020/12/09 00:30:18;;;;;;;85.95;37.30;;;9.90;62.50;;;;;;4912559;28;20161;-64
2020/12/09 00:32:44;;;;;;;84.28;35.83;;;9.90;62.50;;;;;;4912684;28;20069;-64
2020/12/09 00:35:10;;;;;;;86.80;37.10;;;10.00;62.60;;;;;;4906338;28;20413;-63
2020/12/09 00:37:36;;;;;;;86.75;36.60;;;10.00;62.60;;;;;;4907695;28;20048;-64
2020/12/09 00:40:06;;;;;;;92.28;39.35;;;10.00;62.60;;;;;;4912033;28;20043;-65
2020/12/09 00:42:32;;;;;;;89.45;38.88;;;10.00;62.60;;;;;;4908958;28;20776;-63
2020/12/09 00:44:58;;;;;;;92.78;39.55;;;10.00;62.60;;;;;;4909054;28;20047;-64
2020/12/09 00:47:24;;;;;;;88.60;37.97;;;10.00;62.70;;;;;;4915501;28;20073;-64
2020/12/09 00:49:58;;;;;;;87.05;39.00;;;10.00;62.60;;;;;;4929383;28;20746;-64
2020/12/09 00:52:25;;;;;;;91.00;37.00;;;10.00;62.60;;;;;;4915748;28;20047;-64
2020/12/09 00:54:50;;;;;;;88.80;40.33;;;10.00;62.50;;;;;;4902522;28;22400;-63
2020/12/09 00:57:22;;;;;;;100.68;39.65;;;10.00;62.60;;;;;;4901595;28;20051;-64
2020/12/09 00:59:48;;;;;;;94.25;40.22;;;10.00;62.50;;;;;;4917318;28;20043;-64
2020/12/09 01:02:13;;;;;;;94.15;39.33;;;10.10;62.60;;;;;;4920316;28;21488;-64
2020/12/09 01:04:39;;;;;;;92.30;38.88;;;10.10;62.50;;;;;;4908422;28;21034;-64
2020/12/09 01:07:05;;;;;;;93.85;39.88;;;10.10;62.40;;;;;;4909228;28;20051;-64
2020/12/09 01:09:30;;;;;;;85.53;38.88;;;10.10;62.40;;;;;;4915745;28;20050;-64
2020/12/09 01:12:01;;;;;;;85.80;38.70;;;10.10;62.50;;;;;;4914657;28;20047;-64
2020/12/09 01:14:29;;;;;;;86.35;39.05;;;10.10;62.50;;;;;;4913941;28;20044;-64
2020/12/09 01:16:55;;;;;;;84.10;38.40;;;10.10;62.40;;;;;;4918185;28;20501;-63
2020/12/09 01:19:23;;;;;;;94.13;39.63;;;10.10;62.40;;;;;;4920745;28;20042;-63
2020/12/09 01:21:48;;;;;;;96.03;40.75;;;10.10;62.40;;;;;;4922526;28;20072;-64
2020/12/09 01:24:14;;;;;;;91.25;40.15;;;10.10;62.40;;;;;;4914774;28;20047;-63
2020/12/09 01:26:40;;;;;;;93.25;40.03;;;10.10;62.40;;;;;;4915570;28;20039;-64
2020/12/09 01:29:05;;;;;;;95.80;41.75;;;10.10;62.40;;;;;;4918803;28;20531;-63
2020/12/09 01:31:31;;;;;;;92.65;40.38;;;10.10;62.40;;;;;;4912740;28;20127;-64
2020/12/09 01:33:56;;;;;;;95.78;40.67;;;10.10;62.40;;;;;;4930429;28;20120;-64
2020/12/09 01:36:23;;;;;;;89.45;40.20;;;10.10;62.40;;;;;;4915976;28;20192;-64
2020/12/09 01:38:49;;;;;;;89.15;40.65;;;10.10;62.30;;;;;;4918885;28;20129;-64
2020/12/09 01:41:17;;;;;;;100.40;41.15;;;10.10;62.30;;;;;;4914147;28;20426;-64
2020/12/09 01:43:47;;;;;;;97.57;43.17;;;10.10;63.00;;;;;;4909396;28;20055;-64
2020/12/09 01:46:18;;;;;;;98.88;40.63;;;10.10;62.20;;;;;;4915010;28;20053;-64
2020/12/09 01:48:45;;;;;;;105.35;44.65;;;10.00;62.20;;;;;;4917595;28;20138;-63
2020/12/09 01:51:16;;;;;;;100.70;44.80;;;10.00;62.30;;;;;;4910823;28;21972;-64
2020/12/09 01:53:41;;;;;;;104.15;43.90;;;10.00;62.40;;;;;;4915281;28;20535;-64
2020/12/09 01:56:07;;;;;;;102.53;44.47;;;10.00;62.40;;;;;;4915212;28;20051;-64
2020/12/09 01:58:33;;;;;;;99.32;43.13;;;10.00;63.00;;;;;;4915088;28;20039;-64
2020/12/09 02:00:58;;;;;;;104.75;44.63;;;10.00;62.40;;;;;;4913953;28;20172;-64
2020/12/09 02:03:25;;;;;;;95.85;42.47;;;10.10;62.50;;;;;;4912485;28;20122;-64
2020/12/09 02:05:51;;;;;;;102.18;43.30;;;10.00;62.40;;;;;;4910870;28;20055;-64
2020/12/09 02:08:17;;;;;;;102.60;43.47;;;10.00;62.30;;;;;;4910160;28;20051;-64
2020/12/09 02:10:55;;;;;;;99.57;43.88;;;10.00;63.00;;;;;;4916327;28;20047;-63
2020/12/09 02:13:20;;;;;;;95.60;42.50;;;10.00;62.20;;;;;;4913743;28;20047;-64
2020/12/09 02:15:46;;;;;;;100.05;43.30;;;10.10;62.30;;;;;;4912387;28;20054;-64
2020/12/09 02:18:12;;;;;;;94.05;43.15;;;10.10;62.30;;;;;;4912716;28;20050;-63
2020/12/09 02:20:37;;;;;;;99.07;44.58;;;10.00;62.10;;;;;;4912849;28;20068;-64
2020/12/09 02:23:03;;;;;;;99.32;41.40;;;10.00;62.10;;;;;;4907378;28;20047;-64
2020/12/09 02:25:28;;;;;;;102.18;43.47;;;10.00;62.10;;;;;;4909592;28;20082;-64
2020/12/09 02:27:54;;;;;;;94.03;42.50;;;10.00;62.20;;;;;;4910635;28;20039;-63
2020/12/09 02:30:20;;;;;;;101.72;44.05;;;10.00;62.20;;;;;;4923244;28;20558;-64
2020/12/09 02:32:45;;;;;;;100.32;42.95;;;10.00;62.20;;;;;;4922599;28;20074;-64
2020/12/09 02:35:13;;;;;;;100.85;43.35;;;10.00;62.10;;;;;;4909376;28;20121;-64
2020/12/09 02:37:39;;;;;;;106.35;43.20;;;10.00;62.10;;;;;;4916319;28;20113;-64
2020/12/09 02:40:04;;;;;;;104.00;43.13;;;10.00;62.10;;;;;;4927866;28;20517;-64
2020/12/09 02:42:30;;;;;;;96.53;41.15;;;10.00;62.10;;;;;;4916559;28;20046;-63
2020/12/09 02:44:56;;;;;;;109.47;42.88;;;10.00;62.00;;;;;;4916427;28;20054;-64
2020/12/09 02:47:21;;;;;;;104.97;42.72;;;10.00;61.80;;;;;;4916011;28;20042;-64
2020/12/09 02:49:47;;;;;;;102.35;42.15;;;10.00;61.80;;;;;;4915988;28;20049;-64
2020/12/09 02:52:12;;;;;;;99.47;41.75;;;9.90;61.80;;;;;;4924667;28;20046;-64
2020/12/09 02:54:38;;;;;;;103.18;42.05;;;9.90;61.90;;;;;;4914123;28;20748;-64
2020/12/09 02:57:04;;;;;;;99.60;42.20;;;9.90;61.90;;;;;;4915005;28;20331;-64
2020/12/09 02:59:30;;;;;;;107.55;43.25;;;9.90;61.90;;;;;;4907632;28;20134;-64
2020/12/09 03:01:55;;;;;;;104.82;42.63;;;9.90;61.90;;;;;;4913065;28;20047;-64
2020/12/09 03:04:21;;;;;;;110.20;45.42;;;9.90;62.60;;;;;;4911335;28;20047;-64
2020/12/09 03:06:47;;;;;;;101.75;42.58;;;9.90;61.80;;;;;;4912792;28;20090;-64
2020/12/09 03:09:12;;;;;;;104.57;43.72;;;9.90;61.80;;;;;;4909113;28;20039;-63
2020/12/09 03:11:38;;;;;;;116.35;42.40;;;9.80;61.60;;;;;;4910217;28;20059;-63
2020/12/09 03:14:03;;;;;;;110.20;43.15;;;9.80;61.60;;;;;;4909354;28;20491;-64
2020/12/09 03:16:29;;;;;;;104.53;42.97;;;9.80;62.40;;;;;;4912380;28;20106;-64
2020/12/09 03:18:55;;;;;;;105.13;43.05;;;9.80;61.80;;;;;;4912946;28;20043;-64
2020/12/09 03:21:20;;;;;;;105.72;43.83;;;9.70;61.80;;;;;;4914527;28;20044;-64
2020/12/09 03:23:46;;;;;;;113.75;44.20;;;9.70;61.70;;;;;;4912060;28;20095;-64
2020/12/09 03:26:11;;;;;;;124.13;44.13;;;9.70;61.60;;;;;;4909761;28;20055;-64
2020/12/09 03:28:37;;;;;;;111.15;44.30;;;9.60;61.60;;;;;;4916065;28;20043;-64
2020/12/09 03:31:05;;;;;;;122.00;46.35;;;9.60;61.80;;;;;;4918692;28;20102;-64
2020/12/09 03:33:31;;;;;;;125.97;45.50;;;9.60;61.80;;;;;;4908341;28;20125;-64
2020/12/09 03:35:57;;;;;;;125.47;44.88;;;9.50;61.90;;;;;;4919198;28;21637;-63
2020/12/09 03:38:23;;;;;;;119.70;44.40;;;9.50;62.20;;;;;;4917576;28;21478;-64
2020/12/09 03:40:49;;;;;;;117.10;46.47;;;9.50;62.00;;;;;;4921140;28;20126;-64
2020/12/09 03:43:15;;;;;;;122.15;47.55;;;9.50;61.90;;;;;;4916766;28;21938;-64
2020/12/09 03:45:41;;;;;;;117.60;45.22;;;9.50;62.00;;;;;;4918300;28;20050;-64
2020/12/09 03:48:07;;;;;;;119.28;44.45;;;9.50;62.00;;;;;;4911508;28;20047;-64
2020/12/09 03:50:33;;;;;;;122.07;46.05;;;9.50;62.10;;;;;;4910626;28;20109;-64
2020/12/09 03:52:58;;;;;;;120.45;47.40;;;9.50;62.10;;;;;;4911579;28;20055;-64
2020/12/09 03:55:24;;;;;;;127.03;46.20;;;9.40;62.00;;;;;;4909847;28;20118;-64
2020/12/09 03:57:50;;;;;;;131.48;48.72;;;9.40;62.00;;;;;;4910466;28;20086;-63
2020/12/09 04:00:16;;;;;;;126.38;47.17;;;9.40;62.00;;;;;;4910860;28;20050;-64
2020/12/09 04:02:42;;;;;;;135.07;46.42;;;9.40;62.10;;;;;;4908072;28;20409;-64
2020/12/09 04:05:08;;;;;;;141.48;50.65;;;9.30;62.00;;;;;;4914779;28;21917;-63
2020/12/09 04:07:34;;;;;;;125.80;47.40;;;9.30;62.10;;;;;;4913076;28;20118;-64
2020/12/09 04:10:01;;;;;;;127.72;49.08;;;9.20;62.20;;;;;;4908096;28;20472;-64
2020/12/09 04:12:26;;;;;;;133.23;48.45;;;9.20;62.40;;;;;;4909872;28;20039;-64
2020/12/09 04:14:53;;;;;;;136.95;49.90;;;9.20;62.40;;;;;;4908811;28;20130;-64
2020/12/09 04:17:19;;;;;;;139.90;47.55;;;9.20;62.60;;;;;;4901554;28;20051;-64
2020/12/09 04:19:46;;;;;;;128.75;46.10;;;9.20;62.60;;;;;;4913598;28;20046;-64
2020/12/09 04:22:12;;;;;;;136.50;46.63;;;9.20;62.50;;;;;;4918777;28;20043;-64
2020/12/09 04:24:38;;;;;;;124.32;46.03;;;9.20;62.50;;;;;;4907370;28;20102;-67
2020/12/09 04:27:03;;;;;;;134.07;47.25;;;9.20;63.20;;;;;;4915411;28;20074;-64
2020/12/09 04:29:29;;;;;;;123.60;47.90;;;9.20;62.50;;;;;;4923422;28;20062;-64
2020/12/09 04:31:54;;;;;;;137.77;48.47;;;9.20;62.50;;;;;;4925940;28;20971;-64
2020/12/09 04:34:21;;;;;;;139.55;46.75;;;9.20;62.40;;;;;;4916117;28;20130;-64
2020/12/09 04:36:48;;;;;;;131.15;47.13;;;9.10;62.40;;;;;;4916027;28;20043;-64
2020/12/09 04:39:14;;;;;;;129.40;46.75;;;9.10;62.60;;;;;;4902636;28;20948;-64
2020/12/09 04:41:40;;;;;;;139.07;48.03;;;9.10;62.70;;;;;;4911488;28;20527;-64
2020/12/09 04:44:06;;;;;;;119.32;46.15;;;9.10;62.70;;;;;;4908987;28;20047;-63
2020/12/09 04:46:36;;;;;;;131.85;45.88;;;9.10;62.70;;;;;;4913076;28;20090;-64
2020/12/09 04:49:07;;;;;;;135.90;47.92;;;9.10;62.70;;;;;;4912494;28;20138;-64
2020/12/09 04:51:38;;;;;;;137.85;48.80;;;9.10;62.70;;;;;;4914913;28;20060;-64
2020/12/09 04:54:14;;;;;;;136.48;46.75;;;9.10;62.70;;;;;;4913057;28;20040;-64
2020/12/09 04:56:55;;;;;;;125.55;46.40;;;9.10;62.70;;;;;;4926234;28;20592;-64
2020/12/09 04:59:36;;;;;;;125.63;45.35;;;9.10;62.80;;;;;;4914919;28;20077;-64
2020/12/09 05:02:04;;;;;;;139.60;47.50;;;9.00;62.60;;;;;;4915003;28;22068;-64
2020/12/09 05:04:32;;;;;;;132.93;46.20;;;9.00;62.60;;;;;;4921107;28;20051;-64
2020/12/09 05:07:09;;;;;;;132.23;44.53;;;9.00;62.80;;;;;;4913914;28;20519;-68
2020/12/09 05:09:43;;;;;;;141.68;46.65;;;9.00;62.80;;;;;;4919060;28;20614;-64
2020/12/09 05:12:14;;;;;;;134.38;44.08;;;9.00;62.80;;;;;;4924054;28;20657;-64
2020/12/09 05:14:47;;;;;;;136.75;47.55;;;9.00;62.90;;;;;;4916080;28;20031;-63
2020/12/09 05:17:18;;;;;;;132.35;46.58;;;8.90;62.80;;;;;;4916616;28;20043;-64
2020/12/09 05:19:45;;;;;;;133.32;46.58;;;8.90;63.00;;;;;;4919293;28;20067;-63
2020/12/09 05:22:19;;;;;;;130.77;47.20;;;8.90;63.00;;;;;;4946696;22;20047;-61
2020/12/09 05:24:45;;;;;;;137.18;46.45;;;8.90;63.00;;;;;;4907029;28;20047;-61
2020/12/09 05:27:12;;;;;;;141.63;46.67;;;8.90;63.80;;;;;;4924324;28;20583;-61
2020/12/09 05:29:49;;;;;;;135.35;44.83;;;8.90;63.00;;;;;;4923885;28;20135;-61
2020/12/09 05:32:15;;;;;;;136.57;47.22;;;8.90;63.00;;;;;;4917515;28;20511;-61
2020/12/09 05:34:41;;;;;;;135.57;46.65;;;8.90;63.00;;;;;;4921844;28;20066;-61
2020/12/09 05:37:08;;;;;;;136.25;47.75;;;8.90;63.00;;;;;;4921158;28;20048;-62
2020/12/09 05:39:35;;;;;;;135.00;46.80;;;8.90;63.00;;;;;;4925799;28;20043;-61
2020/12/09 05:42:15;;;;;;;138.23;46.13;;;8.90;63.00;;;;;;4917764;28;20484;-61
2020/12/09 05:44:43;;;;;;;138.05;46.65;;;8.90;63.00;;;;;;4920910;28;20069;-61
2020/12/09 05:47:10;;;;;;;137.18;47.53;;;8.90;62.90;;;;;;4925762;28;20912;-61
2020/12/09 05:49:40;;;;;;;128.52;46.53;;;8.90;63.00;;;;;;4925616;28;21416;-61
2020/12/09 05:52:16;;;;;;;126.97;45.65;;;8.80;63.00;;;;;;4918161;28;20043;-61
2020/12/09 05:54:48;;;;;;;121.72;43.88;;;8.80;63.10;;;;;;4913962;28;20452;-61
2020/12/09 05:57:22;;;;;;;120.80;42.53;;;8.80;63.20;;;;;;4910407;28;20043;-61
2020/12/09 05:59:49;;;;;;;128.10;44.58;;;8.80;63.30;;;;;;4925721;28;20090;-61
2020/12/09 06:02:20;;;;;;;114.25;42.72;;;8.80;63.30;;;;;;4917296;28;20054;-61
2020/12/09 06:04:55;;;;;;;122.82;44.10;;;8.80;63.30;;;;;;4923477;28;20042;-60
2020/12/09 06:07:26;;;;;;;124.78;44.88;;;8.80;63.30;;;;;;4916927;28;20031;-61
2020/12/09 06:10:08;;;;;;;115.72;42.65;;;8.80;63.20;;;;;;4923968;28;20106;-61
2020/12/09 06:12:57;;;;;;;114.53;41.72;;;8.80;63.20;;;;;;4921991;28;20050;-62
2020/12/09 06:15:30;;;;;;;109.13;41.90;;;8.80;63.30;;;;;;4921698;28;20035;-61
2020/12/09 06:18:02;;;;;;;115.10;41.60;;;8.80;63.30;;;;;;4920728;28;20039;-61
2020/12/09 06:20:30;;;;;;;105.35;40.00;;;8.80;63.20;;;;;;4920927;28;20876;-61
2020/12/09 06:22:56;;;;;;;111.72;43.05;;;8.80;63.20;;;;;;4929298;28;20523;-61
2020/12/09 06:25:23;;;;;;;108.80;41.00;;;8.80;63.20;;;;;;4928956;28;20050;-61
2020/12/09 06:27:50;;;;;;;106.57;40.47;;;8.70;63.10;;;;;;4941836;28;20477;-61
2020/12/09 06:30:25;;;;;;;109.68;41.60;;;8.70;63.20;;;;;;4922964;28;20057;-61
2020/12/09 06:32:51;;;;;;;108.95;39.13;;;8.70;63.20;;;;;;4941083;28;20118;-61
2020/12/09 06:35:21;;;;;;;109.85;42.47;;;8.80;63.20;;;;;;4923837;28;20050;-61
2020/12/09 06:38:07;;;;;;;100.68;39.08;;;8.80;63.20;;;;;;4935312;28;20580;-61
2020/12/09 06:40:34;;;;;;;104.88;38.95;;;8.80;63.10;;;;;;4917194;28;21163;-61
2020/12/09 06:43:11;;;;;;;104.90;39.65;;;8.80;62.90;;;;;;4927917;28;20535;-61
2020/12/09 06:45:41;;;;;;;119.35;39.28;;;8.80;62.90;;;;;;4923480;28;20039;-61
2020/12/09 06:48:11;;;;;;;105.10;38.67;;;8.80;62.90;;;;;;4918631;28;20153;-61
2020/12/09 06:50:37;;;;;;;101.90;37.72;;;8.80;62.90;;;;;;4925665;28;20106;-61
2020/12/09 06:53:23;;;;;;;99.32;36.83;;;8.80;62.90;;;;;;4928282;28;20122;-62
2020/12/09 06:55:51;;;;;;;100.20;38.05;;;8.80;62.90;;;;;;4927609;28;20047;-61
2020/12/09 06:58:30;;;;;;;93.78;37.30;;;8.80;62.80;;;;;;4922487;28;20115;-61
2020/12/09 07:01:02;;;;;;;100.32;37.92;;;8.80;62.80;;;;;;4926795;28;20054;-61
2020/12/09 07:03:29;;;;;;;97.18;37.33;;;8.80;62.70;;;;;;4927264;28;20505;-61
2020/12/09 07:05:57;;;;;;;107.82;38.15;;;8.70;62.60;;;;;;4930275;28;20074;-61
2020/12/09 07:08:23;;;;;;;101.93;36.75;;;8.70;62.70;;;;;;4931961;28;20432;-61
2020/12/09 07:10:48;;;;;;;109.13;37.40;;;8.70;62.80;;;;;;4933558;28;20106;-61
2020/12/09 07:13:18;;;;;;;104.40;37.67;;;8.70;63.50;;;;;;4931283;28;20047;-61
2020/12/09 07:15:45;;;;;;;96.07;35.75;;;8.70;62.70;;;;;;4925614;28;20051;-62
2020/12/09 07:18:11;;;;;;;104.75;36.90;;;8.70;62.60;;;;;;4942315;28;20039;-64
2020/12/09 07:20:37;;;;;;;92.20;36.15;;;8.60;62.60;;;;;;4929261;28;20043;-61
2020/12/09 07:23:04;;;;;;;97.05;36.22;;;8.60;62.60;;;;;;4926310;28;21154;-61
2020/12/09 07:25:30;;;;;;;101.28;36.08;;;8.60;62.70;;;;;;4918989;28;20232;-65
2020/12/09 07:27:56;;;;;;;102.57;37.38;;;8.50;62.60;;;;;;4924520;28;20066;-62
2020/12/09 07:30:22;;;;;;;96.88;36.55;;;8.50;62.70;;;;;;4930768;28;20137;-62
2020/12/09 07:32:49;;;;;;;103.13;36.88;;;8.50;62.80;;;;;;4923665;28;20050;-62
2020/12/09 07:35:17;;;;;;;92.35;36.42;;;8.50;62.80;;;;;;4925315;28;20039;-61
2020/12/09 07:37:49;;;;;;;93.78;35.80;;;8.50;62.70;;;;;;4924199;28;20043;-61
2020/12/09 07:40:22;;;;;;;92.22;34.53;;;8.50;62.60;;;;;;4929062;28;20106;-61
2020/12/09 07:43:08;;;;;;;89.75;33.40;;;8.50;62.60;;;;;;4938577;28;20511;-61
2020/12/09 07:45:37;;;;;;;91.85;33.95;;;8.50;62.70;;;;;;4932928;28;20047;-61
2020/12/09 07:48:12;;;;;;;100.55;36.10;;;8.50;62.70;;;;;;4921818;28;20047;-61
2020/12/09 07:50:39;;;;;;;106.60;37.20;;;8.50;62.70;;;;;;4931380;28;20101;-61
2020/12/09 07:53:11;;;;;;;103.82;34.35;;;8.50;62.60;;;;;;4939149;28;20031;-61
2020/12/09 07:55:36;;;;;;;106.03;34.63;;;8.50;62.60;;;;;;4938681;28;20051;-61
2020/12/09 07:58:07;;;;;;;97.63;34.47;;;8.50;62.60;;;;;;4931188;28;20046;-61
2020/12/09 08:00:43;;;;;;;103.10;35.50;;;8.50;62.60;;;;;;4933781;28;20055;-61
2020/12/09 08:03:25;;;;;;;98.93;35.63;;;8.50;62.70;;;;;;4923310;28;20075;-61
2020/12/09 08:05:52;;;;;;;96.60;34.35;;;8.40;62.60;;;;;;4928130;28;20086;-61
2020/12/09 08:08:20;;;;;;;104.18;35.00;;;8.40;62.60;;;;;;4934030;28;20164;-61
2020/12/09 08:10:47;;;;;;;97.65;35.40;;;8.40;62.60;;;;;;4936840;28;20106;-61
2020/12/09 08:13:15;;;;;;;93.88;34.75;;;8.40;62.80;;;;;;4942236;28;20043;-61
2020/12/09 08:15:42;;;;;;;93.63;33.75;;;8.40;62.80;;;;;;4937844;28;20126;-61
2020/12/09 08:18:19;;;;;;;104.97;36.55;;;8.50;62.80;;;;;;4941462;28;20046;-61
2020/12/09 08:20:46;;;;;;;105.63;35.58;;;8.50;62.80;;;;;;4941835;28;20049;-61
2020/12/09 08:23:12;;;;;;;96.50;35.33;;;8.50;62.60;;;;;;4940343;28;20039;-61
2020/12/09 08:25:47;;;;;;;102.95;36.67;;;8.50;62.60;;;;;;4941245;28;20102;-61
2020/12/09 08:28:13;;;;;;;98.03;35.28;;;8.60;62.70;;;;;;4949851;28;20039;-61
2020/12/09 08:30:39;;;;;;;102.15;36.83;;;8.60;62.60;;;;;;4954918;28;20047;-61
2020/12/09 08:33:11;;;;;;;91.55;35.83;;;8.60;62.60;;;;;;4940500;28;20094;-61
2020/12/09 08:35:47;;;;;;;108.03;35.78;;;8.70;62.50;;;;;;4939398;28;20542;-61
2020/12/09 08:38:23;;;;;;;84.38;32.40;;;8.60;62.40;;;;;;4938807;28;20098;-61
2020/12/09 08:40:51;;;;;;;105.88;34.63;;;8.70;62.60;;;;;;4941059;28;20397;-61
2020/12/09 08:43:18;;;;;;;99.65;34.38;;;8.70;62.60;;;;;;4955047;28;20034;-61
2020/12/09 08:45:45;;;;;;;94.47;34.47;;;8.70;63.30;;;;;;4937529;28;20071;-61
2020/12/09 08:48:10;;;;;;;94.25;34.33;;;8.80;62.40;;;;;;4938724;28;20061;-61
2020/12/09 08:50:36;;;;;;;99.22;35.13;;;8.80;62.20;;;;;;4939869;28;20043;-61
2020/12/09 08:53:02;;;;;;;105.13;35.67;;;8.80;62.20;;;;;;4937918;28;20594;-61
2020/12/09 08:55:27;;;;;;;103.55;36.10;;;8.80;62.10;;;;;;4934217;28;20050;-61
2020/12/09 08:57:53;;;;;;;108.63;37.13;;;8.80;62.10;;;;;;4935727;28;20575;-61
2020/12/09 09:00:18;;;;;;;108.18;36.42;;;8.80;62.10;;;;;;4933897;28;20042;-61
2020/12/09 09:02:44;;;;;;;106.22;36.20;;;8.80;62.00;;;;;;4932316;28;20177;-61
2020/12/09 09:05:10;;;;;;;103.55;36.28;;;8.80;62.00;;;;;;4933360;28;23904;-61
2020/12/09 09:07:36;;;;;;;112.93;37.47;;;8.80;62.00;;;;;;4931007;28;20056;-61
2020/12/09 09:10:01;;;;;;;103.65;36.83;;;8.80;62.00;;;;;;4927494;28;20141;-61
2020/12/09 09:12:27;;;;;;;106.78;38.05;;;8.80;62.00;;;;;;4932187;28;20050;-61
2020/12/09 09:14:52;;;;;;;116.97;37.10;;;8.80;62.00;;;;;;4948440;28;21040;-61
2020/12/09 09:17:18;;;;;;;106.93;37.85;;;8.80;62.00;;;;;;4930592;28;20063;-61
2020/12/09 09:19:44;;;;;;;119.10;37.53;;;8.80;62.00;;;;;;4931989;28;20412;-61
2020/12/09 09:22:11;;;;;;;110.78;37.22;;;8.80;61.90;;;;;;4932513;28;20538;-61
2020/12/09 09:24:37;;;;;;;109.47;37.70;;;8.80;62.00;;;;;;4935434;28;20043;-61
2020/12/09 09:27:03;;;;;;;106.10;36.15;;;8.80;62.00;;;;;;4935776;28;20113;-61
2020/12/09 09:29:32;;;;;;;104.32;36.10;;;8.80;62.00;;;;;;4937518;28;20926;-61
2020/12/09 09:31:57;;;;;;;94.15;34.65;;;8.90;62.00;;;;;;4931074;28;20154;-61
2020/12/09 09:34:23;;;;;;;95.28;35.38;;;8.90;62.00;;;;;;4933501;28;20053;-61
2020/12/09 09:36:49;;;;;;;96.05;35.40;;;8.90;61.80;;;;;;4934462;28;20460;-61
2020/12/09 09:39:14;;;;;;;105.20;34.95;;;8.90;61.80;;;;;;4934039;28;20043;-61
2020/12/09 09:41:40;;;;;;;100.95;35.25;;;8.90;61.80;;;;;;4932339;28;20035;-61
2020/12/09 09:44:06;;;;;;;93.43;33.70;;;8.90;61.80;;;;;;4934129;28;20047;-61
2020/12/09 09:46:32;;;;;;;98.57;34.30;;;8.90;61.80;;;;;;4934484;28;20543;-61
2020/12/09 09:48:57;;;;;;;99.22;34.08;;;8.90;61.80;;;;;;4933532;28;20192;-61
2020/12/09 09:51:23;;;;;;;92.25;34.42;;;9.00;61.80;;;;;;4935389;28;20719;-61
2020/12/09 09:53:48;;;;;;;87.10;33.17;;;9.00;61.70;;;;;;4933023;28;20058;-62
2020/12/09 09:56:14;;;;;;;96.75;34.67;;;9.00;61.70;;;;;;4936437;28;20035;-61
2020/12/09 09:58:40;;;;;;;86.85;31.05;;;9.00;61.60;;;;;;4935548;28;20062;-61
2020/12/09 10:01:05;;;;;;;98.85;34.92;;;9.00;61.60;;;;;;4931459;28;20463;-61
2020/12/09 10:03:33;;;;;;;91.05;34.15;;;8.90;61.60;;;;;;4933613;28;20039;-61
2020/12/09 10:05:59;;;;;;;87.47;32.25;;;8.90;61.70;;;;;;4933320;28;20048;-61
2020/12/09 10:08:24;;;;;;;95.13;33.20;;;8.90;61.80;;;;;;4931802;28;20182;-61
2020/12/09 10:10:50;;;;;;;92.13;34.15;;;8.90;61.60;;;;;;4931718;28;20055;-61
2020/12/09 10:13:16;;;;;;;96.93;32.38;;;9.00;61.70;;;;;;4933894;28;20170;-61
2020/12/09 10:15:42;;;;;;;88.63;32.40;;;9.00;61.70;;;;;;4931586;28;20540;-61
2020/12/09 10:18:07;;;;;;;90.43;32.60;;;9.00;61.60;;;;;;4934014;28;20047;-61
2020/12/09 10:20:33;;;;;;;84.88;32.83;;;9.00;61.40;;;;;;4933161;28;21985;-61
2020/12/09 10:22:58;;;;;;;84.32;31.23;;;9.00;61.40;;;;;;4942743;28;20548;-61
2020/12/09 10:25:24;;;;;;;89.63;30.90;;;9.00;61.60;;;;;;4943775;28;20035;-61
2020/12/09 10:27:51;;;;;;;87.50;31.95;;;9.10;61.60;;;;;;4946920;28;20035;-61
2020/12/09 10:30:16;;;;;;;90.25;31.30;;;9.10;61.40;;;;;;4946539;28;20575;-61
2020/12/09 10:32:45;;;;;;;94.32;32.97;;;9.10;61.30;;;;;;4944753;28;20039;-61
2020/12/09 10:35:11;;;;;;;102.28;33.85;;;9.10;61.20;;;;;;4944750;28;20035;-61
2020/12/09 10:37:36;;;;;;;92.57;33.03;;;9.10;61.20;;;;;;4943398;28;20247;-61
2020/12/09 10:40:03;;;;;;;96.18;34.25;;;9.10;61.00;;;;;;4945151;28;20039;-61
2020/12/09 10:42:29;;;;;;;78.93;31.75;;;9.10;61.00;;;;;;4943529;28;20678;-61
2020/12/09 10:44:55;;;;;;;103.53;35.58;;;9.10;61.10;;;;;;4957125;28;20117;-61
2020/12/09 10:47:20;;;;;;;99.05;34.58;;;9.10;61.00;;;;;;4944450;28;20576;-61
2020/12/09 10:49:46;;;;;;;93.60;33.45;;;9.10;61.00;;;;;;4944057;28;20958;-61
2020/12/09 10:52:12;;;;;;;91.03;33.05;;;9.10;61.10;;;;;;4942434;28;20452;-61
2020/12/09 10:54:38;;;;;;;92.47;32.50;;;9.10;61.10;;;;;;4943862;28;20531;-61
2020/12/09 10:57:04;;;;;;;89.65;32.55;;;9.20;61.10;;;;;;4944753;28;20039;-61
2020/12/09 10:59:33;;;;;;;91.25;32.92;;;9.10;61.00;;;;;;4946016;28;20662;-61
2020/12/09 11:01:59;;;;;;;90.80;31.67;;;9.20;61.10;;;;;;4935765;28;20081;-61
2020/12/09 11:04:24;;;;;;;88.15;31.40;;;9.20;61.00;;;;;;4929485;28;20046;-61
2020/12/09 11:06:50;;;;;;;93.07;33.40;;;9.20;61.10;;;;;;4935815;28;20565;-61
2020/12/09 11:09:16;;;;;;;90.47;34.65;;;9.20;60.90;;;;;;4928689;28;20036;-61
2020/12/09 11:13:47;;;;;;;87.75;32.38;;;9.20;60.30;;;;;;5043580;27;20486;-61
2020/12/09 11:16:17;;;;;;;97.88;33.90;;;9.20;60.90;;;;;;5041435;28;20179;-61
2020/12/09 11:18:43;;;;;;;96.13;33.03;;;9.10;60.80;;;;;;5056509;28;20051;-61
2020/12/09 11:21:10;;;;;;;89.45;33.95;;;9.10;60.90;;;;;;5043863;22;20014;-64
2020/12/09 11:23:36;;;;;;;91.53;34.58;;;9.10;61.00;;;;;;5003977;28;20124;-64
2020/12/09 11:26:02;;;;;;;102.85;35.25;;;9.10;61.00;;;;;;5004570;28;20044;-66
2020/12/09 11:28:27;;;;;;;103.47;37.95;;;9.10;61.00;;;;;;4999791;28;20037;-66
2020/12/09 11:30:53;;;;;;;95.38;33.30;;;9.10;60.80;;;;;;5007834;28;20529;-64
2020/12/09 11:33:19;;;;;;;85.05;33.75;;;9.10;60.80;;;;;;5009738;28;20061;-64
2020/12/09 11:35:44;;;;;;;91.03;33.80;;;9.10;60.80;;;;;;5012322;28;20061;-64
2020/12/09 11:38:10;;;;;;;101.00;36.03;;;9.10;61.00;;;;;;5004434;28;20237;-64
2020/12/09 11:40:35;;;;;;;95.68;34.55;;;9.10;60.80;;;;;;5013250;28;20033;-64
2020/12/09 11:43:04;;;;;;;98.97;34.90;;;9.10;60.70;;;;;;5006802;28;20042;-65
2020/12/09 11:45:31;;;;;;;103.90;35.95;;;9.10;60.80;;;;;;5009685;28;20037;-64
2020/12/09 11:47:57;;;;;;;98.15;36.03;;;9.00;60.80;;;;;;5011572;28;20119;-64
2020/12/09 11:50:23;;;;;;;95.32;35.63;;;9.00;60.80;;;;;;5010691;28;20100;-64
2020/12/09 11:52:49;;;;;;;100.32;34.00;;;9.00;60.80;;;;;;5015810;28;20050;-64
2020/12/09 11:55:14;;;;;;;94.82;34.88;;;9.00;61.00;;;;;;5002364;28;20041;-66
2020/12/09 11:57:40;;;;;;;95.35;35.75;;;9.00;60.90;;;;;;4996156;28;20080;-66
2020/12/09 12:00:06;;;;;;;102.55;36.00;;;9.00;60.90;;;;;;5000612;28;20044;-64
2020/12/09 12:02:31;;;;;;;97.72;35.63;;;9.00;60.90;;;;;;5012807;28;20092;-64
2020/12/09 12:04:59;;;;;;;104.43;35.63;;;9.00;60.90;;;;;;4998021;28;20407;-64
2020/12/09 12:07:25;;;;;;;104.13;36.83;;;9.00;61.00;;;;;;4998690;28;20064;-64
2020/12/09 12:09:50;;;;;;;107.00;36.20;;;9.10;61.10;;;;;;4995243;28;20863;-64
2020/12/09 12:12:16;;;;;;;106.47;37.08;;;9.10;61.10;;;;;;4992029;28;20075;-64
2020/12/09 12:14:43;;;;;;;98.88;35.72;;;9.10;61.10;;;;;;5000084;28;20034;-64
2020/12/09 12:17:10;;;;;;;100.60;35.67;;;9.10;61.00;;;;;;5004254;28;20050;-64
2020/12/09 12:19:36;;;;;;;101.72;36.85;;;9.10;60.90;;;;;;5004586;28;20053;-64
2020/12/09 12:22:05;;;;;;;100.90;34.78;;;9.10;60.90;;;;;;5003700;28;20088;-66
2020/12/09 12:24:31;;;;;;;99.68;35.10;;;9.10;60.90;;;;;;4997432;28;20034;-66
2020/12/09 12:26:57;;;;;;;100.85;35.88;;;9.10;60.80;;;;;;4993447;28;20046;-66
2020/12/09 12:29:23;;;;;;;98.75;35.33;;;9.10;60.80;;;;;;4992221;28;20092;-66
2020/12/09 12:31:49;;;;;;;99.65;33.22;;;9.10;60.90;;;;;;4980361;28;20069;-66